Time;durP1;ratioP1;P1;durP2;ratioP2;P2;SDS_P1;SDS_P2;PMS_P1;PMS_P2;Temp;Humidity;BMP_temperature;BMP_pressure;BME280_temperature;BME280_humidity;BME280_pressure;Samples;Min_cycle;Max_cycle;Signal;HPM_P1;HPM_P2
2022/10/24 00:02:22;;;;;;;10.27;3.53;;;;;;;15.11;100.00;96478.44;5084007;28;20623;-59
2022/10/24 00:04:48;;;;;;;11.32;3.35;;;;;;;15.10;100.00;96492.75;5084029;28;20222;-59
2022/10/24 00:07:16;;;;;;;6.38;2.95;;;;;;;15.09;100.00;96501.75;5084723;28;20233;-59
2022/10/24 00:09:43;;;;;;;10.02;2.88;;;;;;;15.10;100.00;96504.22;5084376;28;20601;-59
2022/10/24 00:12:10;;;;;;;7.38;3.45;;;;;;;15.10;100.00;96501.56;5087627;28;20230;-59
2022/10/24 00:14:36;;;;;;;10.25;3.25;;;;;;;15.12;100.00;96517.38;5087791;28;20290;-59
2022/10/24 00:17:06;;;;;;;6.80;2.92;;;;;;;15.15;100.00;96535.69;5090954;28;20229;-59
2022/10/24 00:19:32;;;;;;;7.50;3.50;;;;;;;15.18;100.00;96548.63;5087001;28;20279;-59
2022/10/24 00:21:59;;;;;;;11.32;3.08;;;;;;;15.28;100.00;96567.91;5095991;28;20282;-59
2022/10/24 00:24:28;;;;;;;10.25;3.60;;;;;;;15.41;100.00;96577.00;5098153;28;20194;-59
2022/10/24 00:26:54;;;;;;;8.27;3.50;;;;;;;15.54;100.00;96573.81;5094631;28;20232;-58
2022/10/24 00:29:21;;;;;;;7.93;3.30;;;;;;;15.65;100.00;96560.09;5090381;28;20244;-59
2022/10/24 00:31:48;;;;;;;9.10;3.05;;;;;;;15.84;100.00;96532.94;5099841;28;20803;-59
2022/10/24 00:34:14;;;;;;;8.48;2.85;;;;;;;16.08;100.00;96533.75;5098877;28;20205;-58
2022/10/24 00:36:41;;;;;;;7.15;3.08;;;;;;;16.11;100.00;96525.41;5103796;28;20198;-57
2022/10/24 00:39:08;;;;;;;7.43;3.20;;;;;;;16.18;100.00;96526.34;5092434;28;20529;-58
2022/10/24 00:41:40;;;;;;;4.88;2.72;;;;;;;16.29;100.00;96544.59;5086537;28;20276;-58
2022/10/24 00:44:19;;;;;;;7.45;3.40;;;;;;;16.35;100.00;96523.34;5084639;28;20647;-59
2022/10/24 00:46:49;;;;;;;6.90;3.03;;;;;;;16.41;100.00;96532.44;5083865;28;20195;-58
2022/10/24 00:49:18;;;;;;;9.07;3.40;;;;;;;16.47;100.00;96523.72;5086005;28;20244;-58
2022/10/24 00:51:47;;;;;;;5.20;2.60;;;;;;;16.51;100.00;96516.19;5085560;28;20355;-57
2022/10/24 00:54:15;;;;;;;5.35;2.88;;;;;;;16.52;100.00;96537.34;5084843;28;20261;-58
2022/10/24 00:56:47;;;;;;;5.65;2.70;;;;;;;16.52;100.00;96534.66;5084841;28;20289;-59
2022/10/24 00:59:14;;;;;;;7.32;2.78;;;;;;;16.53;100.00;96525.66;5083657;28;20297;-58
2022/10/24 01:01:42;;;;;;;6.30;2.53;;;;;;;16.53;100.00;96524.81;5085541;28;20213;-58
2022/10/24 01:04:10;;;;;;;6.32;2.45;;;;;;;16.57;100.00;96526.16;5086788;28;20340;-59
2022/10/24 01:06:47;;;;;;;7.22;2.78;;;;;;;16.64;100.00;96535.94;5087308;28;20237;-59
2022/10/24 01:09:24;;;;;;;6.75;2.20;;;;;;;16.73;97.92;96528.63;5085064;28;20293;-59
2022/10/24 01:12:02;;;;;;;5.50;2.17;;;;;;;16.78;98.02;96531.59;5082328;28;20638;-59
2022/10/24 01:14:41;;;;;;;2.20;1.63;;;;;;;16.81;96.74;96513.38;5082397;28;20229;-59
2022/10/24 01:17:12;;;;;;;5.40;1.95;;;;;;;16.85;95.57;96546.72;5082560;28;20588;-59
2022/10/24 01:20:18;;;;;;;6.65;2.25;;;;;;;16.91;92.65;96561.97;5082755;28;20237;-59
2022/10/24 01:22:57;;;;;;;5.20;2.50;;;;;;;17.03;90.85;96553.50;5081041;28;20692;-58
2022/10/24 01:25:27;;;;;;;7.97;2.47;;;;;;;17.07;90.39;96563.66;5082424;28;20533;-59
2022/10/24 01:28:03;;;;;;;7.80;2.00;;;;;;;17.13;90.28;96567.41;5082206;28;20292;-58
2022/10/24 01:30:35;;;;;;;5.47;2.10;;;;;;;17.13;90.22;96562.91;5082064;28;20208;-59
2022/10/24 01:33:04;;;;;;;3.53;1.88;;;;;;;17.24;87.11;96550.91;5082595;28;20520;-60
2022/10/24 01:35:39;;;;;;;4.90;2.00;;;;;;;17.36;86.19;96566.28;5082311;28;20298;-59
2022/10/24 01:38:11;;;;;;;4.00;1.85;;;;;;;17.33;86.66;96565.81;5082409;28;20204;-59
2022/10/24 01:40:45;;;;;;;4.75;1.98;;;;;;;17.31;87.21;96551.81;5081490;28;20301;-59
2022/10/24 01:43:14;;;;;;;5.22;2.38;;;;;;;17.30;88.33;96561.69;5081965;28;20638;-58
2022/10/24 01:45:46;;;;;;;7.03;2.00;;;;;;;17.29;87.79;96552.00;5082175;28;20225;-59
2022/10/24 01:48:15;;;;;;;6.53;2.10;;;;;;;17.28;88.89;96541.50;5082045;28;20225;-58
2022/10/24 01:50:42;;;;;;;5.38;2.20;;;;;;;17.23;89.51;96528.69;5081470;28;20696;-58
2022/10/24 01:53:10;;;;;;;3.05;1.75;;;;;;;17.17;90.99;96533.97;5082149;28;20275;-58
2022/10/24 01:55:37;;;;;;;6.32;2.33;;;;;;;17.14;91.19;96523.66;5081932;28;20286;-58
2022/10/24 01:58:04;;;;;;;5.90;2.38;;;;;;;17.08;93.45;96535.06;5081346;28;20195;-59
2022/10/24 02:00:31;;;;;;;6.75;2.08;;;;;;;17.07;92.40;96506.72;5081443;28;20338;-59
2022/10/24 02:03:01;;;;;;;6.20;1.92;;;;;;;17.07;90.29;96534.25;5081543;28;20201;-60
2022/10/24 02:05:32;;;;;;;4.95;2.47;;;;;;;17.07;90.18;96538.78;5081015;28;20182;-59
2022/10/24 02:08:01;;;;;;;6.57;2.13;;;;;;;17.05;90.46;96536.28;5081523;28;20209;-59
2022/10/24 02:10:30;;;;;;;4.15;1.80;;;;;;;17.09;89.28;96536.72;5081521;28;20685;-59
2022/10/24 02:13:00;;;;;;;4.53;1.95;;;;;;;17.10;87.94;96546.41;5081591;28;20289;-59
2022/10/24 02:15:28;;;;;;;4.70;2.42;;;;;;;17.10;87.36;96533.88;5081661;28;20237;-58
2022/10/24 02:17:57;;;;;;;4.75;1.83;;;;;;;17.11;86.40;96540.88;5081514;28;20289;-58
2022/10/24 02:20:28;;;;;;;5.35;2.05;;;;;;;17.10;87.72;96514.34;5081567;28;20313;-59
2022/10/24 02:23:00;;;;;;;5.10;1.73;;;;;;;17.10;86.72;96519.69;5081794;28;20210;-59
2022/10/24 02:25:31;;;;;;;4.07;1.88;;;;;;;17.11;87.53;96518.69;5082048;28;20300;-59
2022/10/24 02:28:03;;;;;;;5.10;1.90;;;;;;;17.17;86.46;96520.59;5081544;28;20285;-60
2022/10/24 02:30:31;;;;;;;4.43;1.65;;;;;;;17.16;86.50;96526.94;5086837;28;20238;-60
2022/10/24 02:33:00;;;;;;;5.80;1.60;;;;;;;17.13;85.77;96495.28;5100996;28;20280;-59
2022/10/24 02:35:30;;;;;;;3.28;1.40;;;;;;;17.09;86.12;96488.63;5095253;28;20205;-60
2022/10/24 02:38:00;;;;;;;6.22;1.90;;;;;;;17.06;86.43;96481.00;5087193;28;20236;-60
2022/10/24 02:40:26;;;;;;;2.58;1.50;;;;;;;17.11;84.85;96499.97;5081453;28;20317;-60
2022/10/24 02:42:55;;;;;;;3.63;1.48;;;;;;;17.19;84.45;96521.22;5081105;28;20227;-59
2022/10/24 02:45:24;;;;;;;1.95;1.45;;;;;;;17.21;82.21;96500.50;5081467;28;20206;-59
2022/10/24 02:47:54;;;;;;;3.72;1.33;;;;;;;17.22;82.50;96515.50;5081004;28;20198;-59
2022/10/24 02:50:21;;;;;;;2.08;1.38;;;;;;;17.22;82.50;96523.53;5080540;28;20247;-58
2022/10/24 02:52:49;;;;;;;2.83;1.67;;;;;;;17.22;83.17;96520.84;5081262;28;20229;-58
2022/10/24 02:55:16;;;;;;;4.38;1.52;;;;;;;17.23;82.03;96514.50;5080369;28;20306;-58
2022/10/24 02:57:43;;;;;;;5.00;1.50;;;;;;;17.26;82.75;96520.31;5080395;28;20238;-59
2022/10/24 03:00:11;;;;;;;4.40;1.83;;;;;;;17.23;83.04;96522.53;5080650;28;20309;-59
2022/10/24 03:02:37;;;;;;;5.10;1.88;;;;;;;17.20;83.58;96522.91;5081010;28;20229;-60
2022/10/24 03:05:04;;;;;;;3.65;1.63;;;;;;;17.24;83.39;96516.16;5080429;28;20858;-59
2022/10/24 03:07:31;;;;;;;4.80;1.80;;;;;;;17.25;83.90;96525.84;5080738;28;20285;-59
2022/10/24 03:09:59;;;;;;;3.90;1.67;;;;;;;17.21;83.18;96544.09;5080523;28;20234;-59
2022/10/24 03:12:25;;;;;;;4.75;1.50;;;;;;;17.26;83.06;96538.19;5080808;28;20564;-58
2022/10/24 03:14:52;;;;;;;2.25;1.40;;;;;;;17.34;83.03;96546.09;5080991;28;20293;-59
2022/10/24 03:17:20;;;;;;;3.13;1.23;;;;;;;17.34;82.21;96535.41;5081319;28;20289;-59
2022/10/24 03:19:47;;;;;;;5.88;1.70;;;;;;;17.39;82.92;96554.41;5084585;28;20279;-58
2022/10/24 03:22:14;;;;;;;4.45;1.58;;;;;;;17.26;84.42;96573.75;5084918;28;20233;-58
2022/10/24 03:24:40;;;;;;;3.25;1.13;;;;;;;17.19;87.63;96575.50;5085666;28;20361;-58
2022/10/24 03:27:09;;;;;;;2.47;1.35;;;;;;;17.06;89.64;96563.81;5085448;28;20206;-59
2022/10/24 03:29:36;;;;;;;4.22;1.30;;;;;;;16.96;91.46;96542.75;5084240;28;20706;-58
2022/10/24 03:32:02;;;;;;;6.38;1.60;;;;;;;16.83;94.74;96537.19;5084361;28;20627;-59
2022/10/24 03:34:29;;;;;;;3.95;1.75;;;;;;;16.73;95.78;96548.16;5084329;28;20259;-58
2022/10/24 03:36:56;;;;;;;3.35;1.30;;;;;;;16.66;96.13;96560.59;5084699;28;20205;-58
2022/10/24 03:39:22;;;;;;;6.22;1.75;;;;;;;16.62;95.01;96561.97;5085065;28;20298;-59
2022/10/24 03:41:49;;;;;;;4.97;1.52;;;;;;;16.52;95.62;96556.03;5085867;28;20361;-58
2022/10/24 03:44:17;;;;;;;3.35;1.48;;;;;;;16.46;96.50;96538.06;5086765;28;20226;-58
2022/10/24 03:46:47;;;;;;;3.55;1.45;;;;;;;16.44;95.27;96510.72;5085185;28;20308;-59
2022/10/24 03:49:14;;;;;;;4.75;1.15;;;;;;;16.46;96.08;96487.34;5083616;28;20297;-58
2022/10/24 03:51:40;;;;;;;2.90;1.30;;;;;;;16.44;94.75;96474.19;5085282;28;20250;-59
2022/10/24 03:54:07;;;;;;;5.40;1.58;;;;;;;16.41;94.93;96495.06;5095136;28;20266;-58
2022/10/24 03:56:34;;;;;;;3.75;1.45;;;;;;;16.36;96.36;96508.16;5076732;28;20259;-58
2022/10/24 03:59:00;;;;;;;3.58;1.30;;;;;;;16.34;98.93;96488.81;5090459;28;20241;-58
2022/10/24 04:01:28;;;;;;;3.10;1.30;;;;;;;16.44;93.36;96505.38;5084032;28;20348;-60
2022/10/24 04:03:55;;;;;;;2.38;1.08;;;;;;;16.46;91.90;96498.03;5083819;28;20341;-60
2022/10/24 04:06:21;;;;;;;1.30;1.08;;;;;;;16.40;92.68;96493.44;5083988;28;20202;-59
2022/10/24 04:08:48;;;;;;;2.58;0.95;;;;;;;16.36;94.91;96517.00;5083255;28;20729;-59
2022/10/24 04:11:15;;;;;;;2.75;1.35;;;;;;;16.46;91.91;96518.56;5083714;28;20290;-60
2022/10/24 04:13:41;;;;;;;4.43;1.20;;;;;;;16.43;93.06;96522.44;5083748;28;20316;-59
2022/10/24 04:16:08;;;;;;;2.80;1.10;;;;;;;16.38;93.55;96512.28;5083985;28;20309;-59
2022/10/24 04:18:36;;;;;;;3.33;1.42;;;;;;;16.39;93.12;96513.13;5083497;28;20554;-58
2022/10/24 04:21:03;;;;;;;2.92;1.42;;;;;;;16.44;93.65;96502.72;5083204;28;20232;-59
2022/10/24 04:23:34;;;;;;;4.47;1.48;;;;;;;16.39;94.41;96497.13;5083051;28;20199;-59
2022/10/24 04:26:01;;;;;;;2.45;1.10;;;;;;;16.47;92.68;96494.38;5083124;28;21465;-59
2022/10/24 04:28:28;;;;;;;3.38;1.45;;;;;;;16.42;93.70;96486.06;5082844;28;20290;-59
2022/10/24 04:30:56;;;;;;;1.75;1.35;;;;;;;16.40;93.81;96472.09;5083062;28;20277;-60
2022/10/24 04:33:22;;;;;;;2.63;1.25;;;;;;;16.43;92.24;96472.56;5083169;28;20389;-59
2022/10/24 04:35:51;;;;;;;3.88;1.42;;;;;;;16.41;92.62;96473.72;5083183;28;20669;-59
2022/10/24 04:38:18;;;;;;;5.07;1.30;;;;;;;16.38;92.67;96479.44;5083022;28;20295;-59
2022/10/24 04:40:46;;;;;;;2.42;1.20;;;;;;;16.33;92.18;96471.16;5083139;28;20222;-59
2022/10/24 04:43:13;;;;;;;4.70;1.20;;;;;;;16.36;92.68;96462.78;5083206;28;20209;-59
2022/10/24 04:45:40;;;;;;;3.30;1.63;;;;;;;16.35;93.89;96459.28;5083009;28;20256;-59
2022/10/24 04:48:08;;;;;;;3.20;1.45;;;;;;;16.35;93.13;96463.78;5083153;28;20201;-59
2022/10/24 04:50:34;;;;;;;3.33;1.00;;;;;;;16.33;93.62;96479.16;5090469;28;20260;-59
2022/10/24 04:53:02;;;;;;;1.25;0.80;;;;;;;16.33;94.35;96493.31;5082597;28;20205;-60
2022/10/24 04:55:29;;;;;;;2.22;1.17;;;;;;;16.31;95.52;96486.50;5082710;28;20614;-59
2022/10/24 04:57:56;;;;;;;1.83;1.15;;;;;;;16.28;95.86;96494.88;5083004;28;20297;-58
2022/10/24 05:00:22;;;;;;;3.72;1.33;;;;;;;16.25;97.03;96493.41;5082940;28;20190;-60
2022/10/24 05:02:49;;;;;;;4.13;1.02;;;;;;;16.24;98.43;96501.59;5082807;28;20288;-59
2022/10/24 05:05:16;;;;;;;3.72;1.40;;;;;;;16.14;100.00;96501.03;5082031;28;20707;-59
2022/10/24 05:07:43;;;;;;;3.97;1.38;;;;;;;16.07;100.00;96505.41;5082537;28;20646;-59
2022/10/24 05:10:12;;;;;;;2.75;1.40;;;;;;;16.07;100.00;96502.75;5083425;28;20296;-60
2022/10/24 05:12:39;;;;;;;4.10;1.60;;;;;;;15.94;100.00;96492.72;5082510;28;20201;-59
2022/10/24 05:15:07;;;;;;;2.33;1.40;;;;;;;15.87;100.00;96505.91;5082956;28;20300;-59
2022/10/24 05:17:34;;;;;;;5.68;1.90;;;;;;;15.79;100.00;96506.00;5082490;28;20297;-59
2022/10/24 05:20:01;;;;;;;1.65;1.35;;;;;;;15.72;100.00;96504.22;5082735;28;20290;-58
2022/10/24 05:22:28;;;;;;;3.35;1.55;;;;;;;15.67;100.00;96507.41;5082627;28;20324;-59
2022/10/24 05:24:54;;;;;;;3.53;1.40;;;;;;;15.67;100.00;96503.91;5082369;28;20202;-58
2022/10/24 05:27:24;;;;;;;5.50;1.65;;;;;;;15.61;100.00;96489.47;5083197;28;20203;-59
2022/10/24 05:29:50;;;;;;;6.00;1.63;;;;;;;15.55;100.00;96492.84;5082931;28;20841;-59
2022/10/24 05:32:17;;;;;;;4.53;1.60;;;;;;;15.52;100.00;96479.84;5081708;28;20197;-59
2022/10/24 05:34:44;;;;;;;5.70;1.83;;;;;;;15.48;100.00;96483.84;5082592;28;20204;-58
2022/10/24 05:37:11;;;;;;;3.83;1.55;;;;;;;15.38;100.00;96480.59;5081850;28;20245;-59
2022/10/24 05:39:37;;;;;;;4.40;2.33;;;;;;;15.37;100.00;96476.28;5082594;28;20281;-59
2022/10/24 05:42:04;;;;;;;5.93;1.67;;;;;;;15.32;100.00;96481.28;5080868;28;20226;-59
2022/10/24 05:44:32;;;;;;;1.55;1.30;;;;;;;15.25;100.00;96481.19;5081846;28;20741;-59
2022/10/24 05:46:59;;;;;;;4.07;1.20;;;;;;;15.24;100.00;96489.31;5081823;28;20284;-59
2022/10/24 05:49:26;;;;;;;2.95;1.13;;;;;;;15.25;100.00;96502.50;5082292;28;20199;-59
2022/10/24 05:51:52;;;;;;;2.83;1.63;;;;;;;15.18;100.00;96506.03;5081551;28;20321;-59
2022/10/24 05:54:19;;;;;;;6.43;1.70;;;;;;;15.16;100.00;96519.50;5081643;28;20712;-59
2022/10/24 05:56:45;;;;;;;4.60;1.45;;;;;;;15.13;100.00;96519.84;5081776;28;20194;-59
2022/10/24 05:59:12;;;;;;;3.40;1.55;;;;;;;15.16;100.00;96542.66;5081893;28;20288;-59
2022/10/24 06:01:41;;;;;;;5.45;1.92;;;;;;;15.20;100.00;96547.47;5081886;28;20228;-59
2022/10/24 06:04:07;;;;;;;5.65;1.77;;;;;;;15.28;100.00;96543.91;5081414;28;20226;-59
2022/10/24 06:06:38;;;;;;;8.65;1.90;;;;;;;15.19;100.00;96543.16;5081866;28;20296;-59
2022/10/24 06:09:05;;;;;;;2.20;1.45;;;;;;;15.14;100.00;96532.19;5082197;28;20288;-59
2022/10/24 06:11:31;;;;;;;3.83;1.88;;;;;;;15.13;100.00;96540.31;5081370;28;20237;-59
2022/10/24 06:13:59;;;;;;;1.45;1.35;;;;;;;15.12;100.00;96528.88;5081619;28;20294;-59
2022/10/24 06:16:26;;;;;;;4.82;1.50;;;;;;;15.08;100.00;96502.75;5081591;28;20329;-59
2022/10/24 06:18:54;;;;;;;5.18;1.88;;;;;;;15.06;100.00;96502.06;5081154;28;20201;-59
2022/10/24 06:21:21;;;;;;;6.55;1.73;;;;;;;15.07;100.00;96509.06;5063490;28;20316;-59
2022/10/24 06:23:48;;;;;;;4.55;1.88;;;;;;;15.06;100.00;96515.38;5081194;28;20216;-59
2022/10/24 06:26:14;;;;;;;6.38;1.60;;;;;;;15.09;100.00;96523.06;5081386;28;20312;-60
2022/10/24 06:28:42;;;;;;;4.63;1.25;;;;;;;15.09;100.00;96515.06;5080516;28;20301;-59
2022/10/24 06:31:10;;;;;;;2.55;1.52;;;;;;;15.05;100.00;96511.94;5080991;28;20631;-59
2022/10/24 06:33:36;;;;;;;7.00;1.92;;;;;;;15.04;100.00;96520.91;5081192;28;20293;-59
2022/10/24 06:36:08;;;;;;;2.95;1.60;;;;;;;15.07;100.00;96533.88;5081412;28;20651;-59
2022/10/24 06:38:35;;;;;;;2.72;1.48;;;;;;;15.08;100.00;96534.72;5081833;28;20197;-59
2022/10/24 06:41:06;;;;;;;4.32;1.98;;;;;;;15.08;100.00;96526.72;5086233;28;20285;-59
2022/10/24 06:43:32;;;;;;;4.10;1.98;;;;;;;15.04;100.00;96525.41;5092916;28;20218;-59
2022/10/24 06:45:59;;;;;;;2.28;1.48;;;;;;;15.03;100.00;96539.72;5086504;28;20240;-59
2022/10/24 06:48:25;;;;;;;7.15;2.05;;;;;;;15.07;100.00;96551.69;5083386;28;20290;-60
2022/10/24 06:50:52;;;;;;;6.68;2.10;;;;;;;15.00;100.00;96548.06;5080893;28;20765;-60
2022/10/24 06:53:20;;;;;;;6.05;1.90;;;;;;;14.97;100.00;96543.06;5080767;28;20276;-59
2022/10/24 06:55:47;;;;;;;13.38;9.80;;;;;;;14.96;100.00;96536.91;5081622;28;20328;-59
2022/10/24 06:58:13;;;;;;;7.95;3.20;;;;;;;14.95;100.00;96533.41;5081003;28;20285;-59
2022/10/24 07:00:40;;;;;;;9.40;6.63;;;;;;;14.95;100.00;96544.06;5081455;28;20332;-59
2022/10/24 07:03:06;;;;;;;4.95;3.15;;;;;;;14.95;100.00;96513.94;5091535;28;20595;-59
2022/10/24 07:05:33;;;;;;;10.02;5.18;;;;;;;14.96;100.00;96512.94;5097698;28;20221;-60
2022/10/24 07:08:00;;;;;;;8.90;4.13;;;;;;;14.94;100.00;96531.78;5088914;28;20229;-59
2022/10/24 07:10:28;;;;;;;7.20;4.72;;;;;;;14.92;100.00;96539.09;5085467;28;20210;-60
2022/10/24 07:12:55;;;;;;;3.42;2.65;;;;;;;14.93;100.00;96538.09;5093843;28;20217;-58
2022/10/24 07:15:21;;;;;;;3.08;2.10;;;;;;;14.91;100.00;96532.09;5086701;28;20209;-58
2022/10/24 07:17:48;;;;;;;4.43;1.73;;;;;;;14.89;100.00;96523.47;5088431;28;20272;-60
2022/10/24 07:20:15;;;;;;;4.32;1.95;;;;;;;14.90;100.00;96518.97;5084070;28;20230;-59
2022/10/24 07:22:44;;;;;;;6.75;2.25;;;;;;;14.88;100.00;96515.63;5081220;28;20308;-59
2022/10/24 07:25:10;;;;;;;6.30;2.70;;;;;;;14.89;100.00;96531.44;5080955;28;20293;-59
2022/10/24 07:27:39;;;;;;;5.03;1.98;;;;;;;14.90;100.00;96543.78;5080729;28;20234;-59
2022/10/24 07:30:07;;;;;;;3.97;1.70;;;;;;;14.92;100.00;96541.75;5080860;28;20212;-59
2022/10/24 07:32:34;;;;;;;8.10;2.25;;;;;;;14.92;100.00;96544.41;5080220;28;20635;-59
2022/10/24 07:35:00;;;;;;;5.40;2.22;;;;;;;14.95;100.00;96528.09;5081017;28;20203;-59
2022/10/24 07:37:27;;;;;;;4.30;1.87;;;;;;;14.98;100.00;96534.09;5080368;28;20612;-59
2022/10/24 07:39:54;;;;;;;4.18;2.30;;;;;;;15.04;100.00;96547.53;5080476;28;20206;-59
2022/10/24 07:42:20;;;;;;;5.97;2.13;;;;;;;15.06;100.00;96555.34;5080158;28;20314;-59
2022/10/24 07:44:48;;;;;;;5.38;2.20;;;;;;;15.07;100.00;96562.34;5080931;28;20539;-58
2022/10/24 07:47:15;;;;;;;8.00;2.58;;;;;;;15.03;100.00;96563.69;5080217;28;20289;-59
2022/10/24 07:49:42;;;;;;;4.77;2.47;;;;;;;15.06;100.00;96572.16;5080228;28;20226;-59
2022/10/24 07:52:08;;;;;;;6.90;2.00;;;;;;;15.05;100.00;96578.50;5080766;28;20205;-59
2022/10/24 07:54:35;;;;;;;2.83;1.90;;;;;;;15.06;100.00;96587.31;5080457;28;20284;-59
2022/10/24 07:57:02;;;;;;;3.88;2.08;;;;;;;15.10;100.00;96604.59;5080377;28;20962;-59
2022/10/24 07:59:29;;;;;;;10.77;2.30;;;;;;;15.09;100.00;96605.63;5080994;28;20306;-59
2022/10/24 08:01:57;;;;;;;4.47;2.80;;;;;;;15.11;100.00;96616.94;5080576;28;20623;-59
2022/10/24 08:04:23;;;;;;;10.50;2.90;;;;;;;15.09;100.00;96632.25;5081199;28;20207;-59
2022/10/24 08:06:50;;;;;;;5.13;2.42;;;;;;;15.08;100.00;96641.25;5083933;28;20267;-59
2022/10/24 08:09:17;;;;;;;6.72;2.92;;;;;;;15.10;100.00;96644.56;5083870;28;20237;-59
2022/10/24 08:11:44;;;;;;;6.47;2.65;;;;;;;15.12;100.00;96658.56;5084095;28;20637;-59
2022/10/24 08:14:11;;;;;;;7.40;3.08;;;;;;;15.13;100.00;96653.03;5083851;28;20699;-60
2022/10/24 08:16:38;;;;;;;8.38;2.72;;;;;;;15.11;100.00;96648.88;5084002;28;20202;-59
2022/10/24 08:19:09;;;;;;;9.80;3.20;;;;;;;15.11;100.00;96654.22;5084430;28;20202;-60
2022/10/24 08:21:36;;;;;;;5.38;2.72;;;;;;;15.10;100.00;96653.38;5084440;28;20631;-59
2022/10/24 08:24:03;;;;;;;5.97;2.47;;;;;;;15.11;100.00;96656.88;5084211;28;20289;-60
2022/10/24 08:26:29;;;;;;;7.25;2.72;;;;;;;15.11;100.00;96664.88;5085437;28;20289;-59
2022/10/24 08:28:56;;;;;;;5.75;2.67;;;;;;;15.10;100.00;96668.53;5084276;28;21520;-59
2022/10/24 08:31:24;;;;;;;7.35;3.22;;;;;;;15.13;100.00;96689.50;5085115;28;20296;-59
2022/10/24 08:33:52;;;;;;;5.38;2.90;;;;;;;15.14;100.00;96691.16;5084480;28;20217;-59
2022/10/24 08:36:25;;;;;;;9.75;3.17;;;;;;;15.14;100.00;96683.16;5086112;28;20301;-59
2022/10/24 08:38:52;;;;;;;6.63;3.60;;;;;;;15.15;100.00;96688.34;5085112;28;20222;-59
2022/10/24 08:41:25;;;;;;;7.60;3.03;;;;;;;15.18;100.00;96668.50;5087687;28;20285;-59
2022/10/24 08:43:52;;;;;;;4.35;2.67;;;;;;;15.22;100.00;96665.34;5088902;28;20253;-59
2022/10/24 08:46:36;;;;;;;5.13;2.75;;;;;;;15.29;100.00;96673.47;5093237;28;20217;-59
2022/10/24 08:49:05;;;;;;;4.60;2.20;;;;;;;15.32;100.00;96671.31;5089312;28;20218;-59
2022/10/24 08:51:40;;;;;;;5.05;2.78;;;;;;;15.35;100.00;96667.47;5088771;28;20269;-59
2022/10/24 08:54:11;;;;;;;4.85;2.88;;;;;;;15.36;100.00;96661.97;5089657;28;20204;-59
2022/10/24 08:56:38;;;;;;;4.55;2.50;;;;;;;15.38;100.00;96661.78;5088256;28;20211;-59
2022/10/24 08:59:06;;;;;;;7.35;3.10;;;;;;;15.40;100.00;96676.63;5091251;28;20297;-59
2022/10/24 09:01:37;;;;;;;5.88;2.63;;;;;;;15.42;100.00;96665.75;5092866;28;21498;-59
2022/10/24 09:04:06;;;;;;;6.38;2.58;;;;;;;15.40;100.00;96673.94;5093351;28;20197;-60
2022/10/24 09:06:34;;;;;;;5.47;2.17;;;;;;;15.38;100.00;96667.94;5094697;28;20623;-59
2022/10/24 09:09:03;;;;;;;4.30;2.50;;;;;;;15.40;100.00;96660.63;5085218;28;20245;-59
2022/10/24 09:11:38;;;;;;;4.53;2.60;;;;;;;15.43;100.00;96659.44;5082949;28;20213;-60
2022/10/24 09:14:12;;;;;;;4.25;2.47;;;;;;;15.44;100.00;96666.44;5082860;28;20281;-59
2022/10/24 09:16:41;;;;;;;5.22;2.20;;;;;;;15.47;100.00;96671.41;5083012;28;20284;-59
2022/10/24 09:19:11;;;;;;;4.45;2.30;;;;;;;15.45;100.00;96658.25;5083533;28;20791;-59
2022/10/24 09:21:40;;;;;;;4.15;2.10;;;;;;;15.44;100.00;96651.25;5092501;28;20237;-59
2022/10/24 09:24:07;;;;;;;5.25;2.33;;;;;;;15.44;100.00;96656.59;5093591;28;20256;-60
2022/10/24 09:26:37;;;;;;;5.03;2.40;;;;;;;15.42;100.00;96674.59;5093571;28;20214;-59
2022/10/24 09:29:03;;;;;;;4.90;2.63;;;;;;;15.41;100.00;96669.41;5104915;28;20194;-59
2022/10/24 09:31:30;;;;;;;6.30;2.45;;;;;;;15.42;100.00;96671.94;5107351;28;20212;-58
2022/10/24 09:33:59;;;;;;;8.13;3.05;;;;;;;15.42;100.00;96679.09;5100464;28;20194;-59
2022/10/24 09:36:30;;;;;;;3.20;2.47;;;;;;;15.44;100.00;96675.25;5066340;28;20218;-59
2022/10/24 09:39:22;;;;;;;6.13;2.28;;;;;;;15.38;100.00;96667.94;5065800;28;20267;-60
2022/10/24 09:41:49;;;;;;;3.00;2.15;;;;;;;15.38;100.00;96675.09;5082637;28;20225;-59
2022/10/24 09:44:30;;;;;;;4.45;2.40;;;;;;;15.36;100.00;96695.78;5082773;28;20252;-59
2022/10/24 09:46:57;;;;;;;4.18;2.15;;;;;;;15.32;100.00;96716.59;5082093;28;20275;-59
2022/10/24 09:49:34;;;;;;;5.25;1.90;;;;;;;15.27;100.00;96734.09;5082223;28;20298;-57
2022/10/24 09:52:05;;;;;;;2.83;2.00;;;;;;;15.25;100.00;96720.13;5082683;28;20235;-58
2022/10/24 09:54:34;;;;;;;5.43;2.15;;;;;;;15.24;100.00;96721.94;5082454;28;20304;-59
2022/10/24 09:57:05;;;;;;;4.70;1.75;;;;;;;15.15;100.00;96736.28;5065264;28;20218;-59
2022/10/24 09:59:34;;;;;;;4.97;2.20;;;;;;;15.11;100.00;96748.28;5082560;28;20272;-58
2022/10/24 10:02:28;;;;;;;5.45;1.80;;;;;;;15.04;100.00;96775.75;5081707;28;20206;-59
2022/10/24 10:05:25;;;;;;;3.97;1.85;;;;;;;14.99;100.00;96799.38;5035022;28;20418;-59
2022/10/24 10:07:51;;;;;;;3.30;1.63;;;;;;;14.96;100.00;96819.19;5000004;28;20291;-59
2022/10/24 10:10:40;;;;;;;5.07;2.10;;;;;;;14.89;100.00;96829.66;5063795;28;20220;-59
2022/10/24 10:13:21;;;;;;;3.30;2.22;;;;;;;14.86;100.00;96838.00;5076028;28;20290;-58
2022/10/24 10:15:49;;;;;;;2.58;1.92;;;;;;;14.83;100.00;96845.47;5082015;28;20202;-58
2022/10/24 10:18:24;;;;;;;5.23;1.93;;;;;;;14.75;100.00;96843.63;5081384;28;20267;-59
2022/10/24 10:21:01;;;;;;;3.00;1.90;;;;;;;14.75;100.00;96835.66;5081409;28;20216;-59
2022/10/24 10:23:30;;;;;;;1.67;1.40;;;;;;;14.72;100.00;96829.81;5081279;28;20729;-59
2022/10/24 10:26:21;;;;;;;3.05;1.40;;;;;;;14.67;100.00;96824.13;5080913;28;20198;-59
2022/10/24 10:29:02;;;;;;;2.90;1.27;;;;;;;14.64;100.00;96832.47;5079220;28;20230;-59
2022/10/24 10:31:37;;;;;;;1.55;1.30;;;;;;;14.72;100.00;96809.34;5081552;28;20273;-59
2022/10/24 10:34:21;;;;;;;1.70;1.15;;;;;;;14.71;100.00;96802.34;5081299;28;20189;-59
2022/10/24 10:37:10;;;;;;;0.82;0.70;;;;;;;14.64;100.00;96808.50;5080915;28;20210;-60
2022/10/24 10:39:52;;;;;;;1.67;1.30;;;;;;;14.59;100.00;96779.75;5070103;28;20275;-59
2022/10/24 10:42:25;;;;;;;2.83;1.63;;;;;;;14.56;100.00;96752.63;5081739;28;21126;-59
2022/10/24 10:45:04;;;;;;;1.42;1.33;;;;;;;14.60;100.00;96761.91;5081940;28;20226;-59
2022/10/24 10:47:36;;;;;;;2.95;1.20;;;;;;;14.59;100.00;96771.75;5081699;28;20200;-59
2022/10/24 10:50:18;;;;;;;4.18;1.45;;;;;;;14.63;100.00;96758.94;5081353;28;20335;-59
2022/10/24 10:52:48;;;;;;;4.38;1.45;;;;;;;14.61;100.00;96740.47;5081448;28;20183;-59
2022/10/24 10:55:26;;;;;;;1.30;1.20;;;;;;;14.63;100.00;96730.47;5081967;28;20517;-60
2022/10/24 10:58:00;;;;;;;2.43;1.13;;;;;;;14.64;100.00;96726.81;5081326;28;20194;-59
2022/10/24 11:00:34;;;;;;;3.72;1.20;;;;;;;14.69;100.00;96745.81;5081400;28;20604;-59
2022/10/24 11:03:26;;;;;;;2.83;1.40;;;;;;;14.69;100.00;96731.66;5080708;28;21455;-60
2022/10/24 11:05:57;;;;;;;1.10;1.00;;;;;;;14.69;100.00;96745.81;5081213;28;20583;-59
2022/10/24 11:08:38;;;;;;;1.23;1.13;;;;;;;14.68;100.00;96752.13;5080453;28;20556;-59
2022/10/24 11:11:07;;;;;;;3.15;1.30;;;;;;;14.67;100.00;96747.78;5080693;28;20677;-60
2022/10/24 11:13:39;;;;;;;2.55;1.08;;;;;;;14.63;100.00;96746.44;5080718;28;20256;-59
2022/10/24 11:16:08;;;;;;;1.83;0.93;;;;;;;14.65;100.00;96741.81;5081068;28;20225;-59
2022/10/24 11:18:37;;;;;;;2.40;0.70;;;;;;;14.58;100.00;96731.97;5080731;28;20285;-59
2022/10/24 11:21:07;;;;;;;0.87;0.87;;;;;;;14.60;100.00;96732.63;5081371;28;20292;-58
2022/10/24 11:23:37;;;;;;;2.05;1.30;;;;;;;14.53;100.00;96734.28;5080971;28;20312;-58
2022/10/24 11:26:06;;;;;;;1.88;1.02;;;;;;;14.54;100.00;96726.16;5080875;28;20289;-59
2022/10/24 11:28:40;;;;;;;2.92;0.98;;;;;;;14.60;100.00;96722.00;5081284;28;20225;-60
2022/10/24 11:31:11;;;;;;;1.20;0.83;;;;;;;14.59;100.00;96726.50;5080667;28;20329;-59
2022/10/24 11:33:43;;;;;;;3.47;1.40;;;;;;;14.68;100.00;96730.81;5080959;28;20222;-58
2022/10/24 11:36:18;;;;;;;1.38;1.08;;;;;;;14.65;100.00;96722.34;5081076;28;20302;-58
2022/10/24 11:38:50;;;;;;;0.70;0.70;;;;;;;14.68;100.00;96716.69;5082227;28;20267;-58